sensor_id;sensor_type;location;lat;lon;timestamp;temperature;humidity
65826;DHT22;52586;-43.152;172.732;2023-03-01T00:01:13;23.40;53.60
65826;DHT22;52586;-43.152;172.732;2023-03-01T00:03:44;23.40;53.60
65826;DHT22;52586;-43.152;172.732;2023-03-01T00:06:15;23.40;53.70
65826;DHT22;52586;-43.152;172.732;2023-03-01T00:08:45;23.50;53.80
65826;DHT22;52586;-43.152;172.732;2023-03-01T00:11:18;23.50;53.80
65826;DHT22;52586;-43.152;172.732;2023-03-01T00:13:51;23.50;53.90
65826;DHT22;52586;-43.152;172.732;2023-03-01T00:16:25;23.50;54.50
65826;DHT22;52586;-43.152;172.732;2023-03-01T00:18:56;23.60;54.00
65826;DHT22;52586;-43.152;172.732;2023-03-01T00:21:27;23.60;54.00
65826;DHT22;52586;-43.152;172.732;2023-03-01T00:23:58;23.70;54.00
65826;DHT22;52586;-43.152;172.732;2023-03-01T00:26:29;23.70;54.00
65826;DHT22;52586;-43.152;172.732;2023-03-01T00:29:00;23.80;54.10
65826;DHT22;52586;-43.152;172.732;2023-03-01T00:31:33;23.70;54.60
65826;DHT22;52586;-43.152;172.732;2023-03-01T00:34:04;23.80;54.10
65826;DHT22;52586;-43.152;172.732;2023-03-01T00:36:36;23.80;54.10
65826;DHT22;52586;-43.152;172.732;2023-03-01T00:39:10;23.80;54.10
65826;DHT22;52586;-43.152;172.732;2023-03-01T00:41:41;23.90;54.10
65826;DHT22;52586;-43.152;172.732;2023-03-01T00:44:12;23.90;54.10
65826;DHT22;52586;-43.152;172.732;2023-03-01T00:46:45;23.90;54.20
65826;DHT22;52586;-43.152;172.732;2023-03-01T00:49:15;24.00;54.30
65826;DHT22;52586;-43.152;172.732;2023-03-01T00:51:46;24.00;54.20
65826;DHT22;52586;-43.152;172.732;2023-03-01T00:54:17;24.00;54.30
65826;DHT22;52586;-43.152;172.732;2023-03-01T00:56:49;24.10;54.30
65826;DHT22;52586;-43.152;172.732;2023-03-01T00:59:19;24.10;54.30
65826;DHT22;52586;-43.152;172.732;2023-03-01T01:01:59;24.20;54.30
65826;DHT22;52586;-43.152;172.732;2023-03-01T01:04:29;24.20;54.30
65826;DHT22;52586;-43.152;172.732;2023-03-01T01:07:00;24.20;54.20
65826;DHT22;52586;-43.152;172.732;2023-03-01T01:09:31;24.30;54.30
65826;DHT22;52586;-43.152;172.732;2023-03-01T01:12:02;24.30;54.30
65826;DHT22;52586;-43.152;172.732;2023-03-01T01:14:32;24.30;54.30
65826;DHT22;52586;-43.152;172.732;2023-03-01T01:17:05;24.30;54.30
65826;DHT22;52586;-43.152;172.732;2023-03-01T01:19:36;24.40;54.20
65826;DHT22;52586;-43.152;172.732;2023-03-01T01:22:07;24.40;54.20
65826;DHT22;52586;-43.152;172.732;2023-03-01T01:24:38;24.50;54.30
65826;DHT22;52586;-43.152;172.732;2023-03-01T01:27:08;24.50;54.40
65826;DHT22;52586;-43.152;172.732;2023-03-01T01:29:39;24.50;54.40
65826;DHT22;52586;-43.152;172.732;2023-03-01T01:32:11;24.50;54.30
65826;DHT22;52586;-43.152;172.732;2023-03-01T01:34:42;24.60;54.40
65826;DHT22;52586;-43.152;172.732;2023-03-01T01:37:14;24.60;54.30
65826;DHT22;52586;-43.152;172.732;2023-03-01T01:39:44;24.70;54.30
65826;DHT22;52586;-43.152;172.732;2023-03-01T01:42:17;24.70;54.30
65826;DHT22;52586;-43.152;172.732;2023-03-01T01:45:15;24.70;54.20
65826;DHT22;52586;-43.152;172.732;2023-03-01T01:47:41;24.80;54.30
65826;DHT22;52586;-43.152;172.732;2023-03-01T01:50:15;24.80;54.20
65826;DHT22;52586;-43.152;172.732;2023-03-01T01:52:50;24.90;54.10
65826;DHT22;52586;-43.152;172.732;2023-03-01T01:55:22;24.90;54.10
65826;DHT22;52586;-43.152;172.732;2023-03-01T01:57:56;24.90;54.10
65826;DHT22;52586;-43.152;172.732;2023-03-01T02:00:29;24.90;54.10
65826;DHT22;52586;-43.152;172.732;2023-03-01T02:03:07;24.90;54.00
65826;DHT22;52586;-43.152;172.732;2023-03-01T02:05:42;25.00;54.10
65826;DHT22;52586;-43.152;172.732;2023-03-01T02:08:14;25.00;54.10
65826;DHT22;52586;-43.152;172.732;2023-03-01T02:10:48;25.10;54.10
65826;DHT22;52586;-43.152;172.732;2023-03-01T02:13:19;25.10;54.00
65826;DHT22;52586;-43.152;172.732;2023-03-01T02:15:50;25.10;53.90
65826;DHT22;52586;-43.152;172.732;2023-03-01T02:18:24;25.10;54.30
65826;DHT22;52586;-43.152;172.732;2023-03-01T02:21:10;25.10;53.70
65826;DHT22;52586;-43.152;172.732;2023-03-01T02:23:42;25.20;53.70
65826;DHT22;52586;-43.152;172.732;2023-03-01T02:26:20;25.20;53.60
65826;DHT22;52586;-43.152;172.732;2023-03-01T02:28:56;25.30;53.60
65826;DHT22;52586;-43.152;172.732;2023-03-01T02:31:27;25.30;53.50
65826;DHT22;52586;-43.152;172.732;2023-03-01T02:34:15;25.30;53.50
65826;DHT22;52586;-43.152;172.732;2023-03-01T02:36:47;25.30;53.40
65826;DHT22;52586;-43.152;172.732;2023-03-01T02:39:21;25.30;53.30
65826;DHT22;52586;-43.152;172.732;2023-03-01T02:41:54;25.40;53.40
65826;DHT22;52586;-43.152;172.732;2023-03-01T02:44:26;25.40;53.30
65826;DHT22;52586;-43.152;172.732;2023-03-01T02:46:58;25.40;53.30
65826;DHT22;52586;-43.152;172.732;2023-03-01T02:49:33;25.50;53.30
65826;DHT22;52586;-43.152;172.732;2023-03-01T02:55:02;25.60;53.10
65826;DHT22;52586;-43.152;172.732;2023-03-01T02:57:35;25.60;52.90
65826;DHT22;52586;-43.152;172.732;2023-03-01T03:00:12;25.60;52.90
65826;DHT22;52586;-43.152;172.732;2023-03-01T03:02:47;25.70;52.90
65826;DHT22;52586;-43.152;172.732;2023-03-01T03:05:19;25.70;52.80
65826;DHT22;52586;-43.152;172.732;2023-03-01T03:07:51;25.80;52.90
65826;DHT22;52586;-43.152;172.732;2023-03-01T03:10:27;25.80;52.80
65826;DHT22;52586;-43.152;172.732;2023-03-01T03:13:01;25.90;52.90
65826;DHT22;52586;-43.152;172.732;2023-03-01T03:15:34;25.90;52.70
65826;DHT22;52586;-43.152;172.732;2023-03-01T03:18:08;25.90;52.60
65826;DHT22;52586;-43.152;172.732;2023-03-01T03:20:41;25.90;52.50
65826;DHT22;52586;-43.152;172.732;2023-03-01T03:23:12;26.00;52.50
65826;DHT22;52586;-43.152;172.732;2023-03-01T03:25:43;26.00;52.50
65826;DHT22;52586;-43.152;172.732;2023-03-01T03:28:14;26.10;52.50
65826;DHT22;52586;-43.152;172.732;2023-03-01T03:30:46;26.20;52.50
65826;DHT22;52586;-43.152;172.732;2023-03-01T03:33:17;26.20;52.50
65826;DHT22;52586;-43.152;172.732;2023-03-01T03:35:49;26.20;52.40
65826;DHT22;52586;-43.152;172.732;2023-03-01T03:38:20;26.30;52.40
65826;DHT22;52586;-43.152;172.732;2023-03-01T03:40:52;26.30;52.30
65826;DHT22;52586;-43.152;172.732;2023-03-01T03:43:31;26.40;52.30
65826;DHT22;52586;-43.152;172.732;2023-03-01T03:46:04;26.40;52.30
65826;DHT22;52586;-43.152;172.732;2023-03-01T03:48:35;26.50;52.30
65826;DHT22;52586;-43.152;172.732;2023-03-01T03:51:09;26.50;52.20
65826;DHT22;52586;-43.152;172.732;2023-03-01T03:53:40;26.60;52.20
65826;DHT22;52586;-43.152;172.732;2023-03-01T03:56:11;26.60;52.20
65826;DHT22;52586;-43.152;172.732;2023-03-01T03:58:41;26.60;52.10
65826;DHT22;52586;-43.152;172.732;2023-03-01T04:01:14;26.70;52.10
65826;DHT22;52586;-43.152;172.732;2023-03-01T04:03:45;26.70;52.00
65826;DHT22;52586;-43.152;172.732;2023-03-01T04:06:16;26.80;52.00
65826;DHT22;52586;-43.152;172.732;2023-03-01T04:08:46;26.80;51.90
65826;DHT22;52586;-43.152;172.732;2023-03-01T04:11:26;26.80;51.80
65826;DHT22;52586;-43.152;172.732;2023-03-01T04:13:58;26.90;51.70
65826;DHT22;52586;-43.152;172.732;2023-03-01T04:16:31;26.90;51.70
65826;DHT22;52586;-43.152;172.732;2023-03-01T04:19:01;27.00;51.60
65826;DHT22;52586;-43.152;172.732;2023-03-01T04:21:34;27.00;51.50
65826;DHT22;52586;-43.152;172.732;2023-03-01T04:24:04;27.00;51.40
65826;DHT22;52586;-43.152;172.732;2023-03-01T04:26:36;27.10;51.30
65826;DHT22;52586;-43.152;172.732;2023-03-01T04:29:07;27.10;51.20
65826;DHT22;52586;-43.152;172.732;2023-03-01T04:31:39;27.10;51.20
65826;DHT22;52586;-43.152;172.732;2023-03-01T04:34:10;27.10;51.20
65826;DHT22;52586;-43.152;172.732;2023-03-01T04:36:41;27.20;51.20
65826;DHT22;52586;-43.152;172.732;2023-03-01T04:39:12;27.20;50.90
65826;DHT22;52586;-43.152;172.732;2023-03-01T04:41:43;27.20;50.70
65826;DHT22;52586;-43.152;172.732;2023-03-01T04:44:13;27.20;50.50
65826;DHT22;52586;-43.152;172.732;2023-03-01T04:46:48;27.20;50.30
65826;DHT22;52586;-43.152;172.732;2023-03-01T04:49:19;27.20;49.70
65826;DHT22;52586;-43.152;172.732;2023-03-01T04:51:49;27.20;48.60
65826;DHT22;52586;-43.152;172.732;2023-03-01T04:54:20;27.20;47.50
65826;DHT22;52586;-43.152;172.732;2023-03-01T04:56:51;27.20;47.30
65826;DHT22;52586;-43.152;172.732;2023-03-01T04:59:22;27.10;46.60
65826;DHT22;52586;-43.152;172.732;2023-03-01T05:01:55;27.10;45.70
65826;DHT22;52586;-43.152;172.732;2023-03-01T05:04:28;27.10;45.80
65826;DHT22;52586;-43.152;172.732;2023-03-01T05:06:58;27.10;45.10
65826;DHT22;52586;-43.152;172.732;2023-03-01T05:09:29;27.10;45.00
65826;DHT22;52586;-43.152;172.732;2023-03-01T05:11:59;27.00;45.20
65826;DHT22;52586;-43.152;172.732;2023-03-01T05:14:30;27.00;45.40
65826;DHT22;52586;-43.152;172.732;2023-03-01T05:17:03;27.00;45.10
65826;DHT22;52586;-43.152;172.732;2023-03-01T05:19:34;27.00;45.10
65826;DHT22;52586;-43.152;172.732;2023-03-01T05:22:05;27.00;44.50
65826;DHT22;52586;-43.152;172.732;2023-03-01T05:24:36;27.00;44.50
65826;DHT22;52586;-43.152;172.732;2023-03-01T05:27:06;27.00;43.60
65826;DHT22;52586;-43.152;172.732;2023-03-01T05:29:37;26.90;43.50
65826;DHT22;52586;-43.152;172.732;2023-03-01T05:32:09;26.90;43.30
65826;DHT22;52586;-43.152;172.732;2023-03-01T05:34:43;26.90;43.30
65826;DHT22;52586;-43.152;172.732;2023-03-01T05:37:14;26.90;42.70
65826;DHT22;52586;-43.152;172.732;2023-03-01T05:39:45;26.90;42.70
65826;DHT22;52586;-43.152;172.732;2023-03-01T05:42:18;26.90;42.70
65826;DHT22;52586;-43.152;172.732;2023-03-01T05:44:48;26.90;42.50
65826;DHT22;52586;-43.152;172.732;2023-03-01T05:47:21;26.90;41.90
65826;DHT22;52586;-43.152;172.732;2023-03-01T05:49:51;26.90;42.10
65826;DHT22;52586;-43.152;172.732;2023-03-01T05:52:22;26.80;41.90
65826;DHT22;52586;-43.152;172.732;2023-03-01T05:54:53;26.80;41.60
65826;DHT22;52586;-43.152;172.732;2023-03-01T05:57:23;26.80;41.70
65826;DHT22;52586;-43.152;172.732;2023-03-01T05:59:54;26.80;41.50
65826;DHT22;52586;-43.152;172.732;2023-03-01T06:02:27;26.80;41.20
65826;DHT22;52586;-43.152;172.732;2023-03-01T06:04:57;26.80;41.50
65826;DHT22;52586;-43.152;172.732;2023-03-01T06:07:28;26.80;41.70
65826;DHT22;52586;-43.152;172.732;2023-03-01T06:09:59;26.80;42.10
65826;DHT22;52586;-43.152;172.732;2023-03-01T06:12:31;26.80;42.40
65826;DHT22;52586;-43.152;172.732;2023-03-01T06:15:03;26.80;42.60
65826;DHT22;52586;-43.152;172.732;2023-03-01T06:17:36;26.80;42.60
65826;DHT22;52586;-43.152;172.732;2023-03-01T06:20:10;26.90;42.40
65826;DHT22;52586;-43.152;172.732;2023-03-01T06:22:41;26.80;42.10
65826;DHT22;52586;-43.152;172.732;2023-03-01T06:25:13;26.80;42.00
65826;DHT22;52586;-43.152;172.732;2023-03-01T06:27:44;26.80;41.70
65826;DHT22;52586;-43.152;172.732;2023-03-01T06:30:15;26.80;41.40
65826;DHT22;52586;-43.152;172.732;2023-03-01T06:32:48;26.70;41.20
65826;DHT22;52586;-43.152;172.732;2023-03-01T06:35:19;26.70;40.90
65826;DHT22;52586;-43.152;172.732;2023-03-01T06:37:50;26.70;40.80
65826;DHT22;52586;-43.152;172.732;2023-03-01T06:40:21;26.60;40.60
65826;DHT22;52586;-43.152;172.732;2023-03-01T06:42:52;26.50;40.70
65826;DHT22;52586;-43.152;172.732;2023-03-01T06:45:23;26.50;40.80
65826;DHT22;52586;-43.152;172.732;2023-03-01T06:48:02;26.50;41.00
65826;DHT22;52586;-43.152;172.732;2023-03-01T06:50:34;26.50;40.90
65826;DHT22;52586;-43.152;172.732;2023-03-01T06:53:04;26.40;41.00
65826;DHT22;52586;-43.152;172.732;2023-03-01T06:55:35;26.40;41.20
65826;DHT22;52586;-43.152;172.732;2023-03-01T06:58:06;26.40;41.30
65826;DHT22;52586;-43.152;172.732;2023-03-01T07:00:36;26.30;41.40
65826;DHT22;52586;-43.152;172.732;2023-03-01T07:03:10;26.30;41.50
65826;DHT22;52586;-43.152;172.732;2023-03-01T07:05:41;26.30;41.70
65826;DHT22;52586;-43.152;172.732;2023-03-01T07:08:12;26.20;41.70
65826;DHT22;52586;-43.152;172.732;2023-03-01T07:10:43;26.20;42.10
65826;DHT22;52586;-43.152;172.732;2023-03-01T07:13:13;26.20;42.40
65826;DHT22;52586;-43.152;172.732;2023-03-01T07:15:44;26.20;42.70
65826;DHT22;52586;-43.152;172.732;2023-03-01T07:18:16;26.20;42.90
65826;DHT22;52586;-43.152;172.732;2023-03-01T07:20:47;26.20;43.10
65826;DHT22;52586;-43.152;172.732;2023-03-01T07:23:18;26.20;43.30
65826;DHT22;52586;-43.152;172.732;2023-03-01T07:25:53;26.30;43.40
65826;DHT22;52586;-43.152;172.732;2023-03-01T07:28:24;26.30;43.40
65826;DHT22;52586;-43.152;172.732;2023-03-01T07:30:55;26.30;43.50
65826;DHT22;52586;-43.152;172.732;2023-03-01T07:33:27;26.30;44.20
65826;DHT22;52586;-43.152;172.732;2023-03-01T07:35:58;26.40;43.70
65826;DHT22;52586;-43.152;172.732;2023-03-01T07:38:29;26.30;43.80
65826;DHT22;52586;-43.152;172.732;2023-03-01T07:41:01;26.40;44.00
65826;DHT22;52586;-43.152;172.732;2023-03-01T07:43:32;26.40;44.10
65826;DHT22;52586;-43.152;172.732;2023-03-01T07:46:03;26.40;44.10
65826;DHT22;52586;-43.152;172.732;2023-03-01T07:48:36;26.40;44.00
65826;DHT22;52586;-43.152;172.732;2023-03-01T07:51:07;26.40;44.10
65826;DHT22;52586;-43.152;172.732;2023-03-01T07:53:38;26.50;44.20
65826;DHT22;52586;-43.152;172.732;2023-03-01T07:56:11;26.50;44.20
65826;DHT22;52586;-43.152;172.732;2023-03-01T07:58:42;26.40;44.20
65826;DHT22;52586;-43.152;172.732;2023-03-01T08:01:14;26.50;44.30
65826;DHT22;52586;-43.152;172.732;2023-03-01T08:03:47;26.50;44.20
65826;DHT22;52586;-43.152;172.732;2023-03-01T08:06:18;26.50;44.30
65826;DHT22;52586;-43.152;172.732;2023-03-01T08:08:49;26.50;44.40
65826;DHT22;52586;-43.152;172.732;2023-03-01T08:11:19;26.50;44.40
65826;DHT22;52586;-43.152;172.732;2023-03-01T08:13:50;26.50;44.50
65826;DHT22;52586;-43.152;172.732;2023-03-01T08:16:21;26.50;44.60
65826;DHT22;52586;-43.152;172.732;2023-03-01T08:18:54;26.50;44.70
65826;DHT22;52586;-43.152;172.732;2023-03-01T08:21:28;26.50;44.70
65826;DHT22;52586;-43.152;172.732;2023-03-01T08:23:58;26.50;44.80
65826;DHT22;52586;-43.152;172.732;2023-03-01T08:26:29;26.50;44.70
65826;DHT22;52586;-43.152;172.732;2023-03-01T08:29:01;26.50;44.70
65826;DHT22;52586;-43.152;172.732;2023-03-01T08:31:32;26.50;44.60
65826;DHT22;52586;-43.152;172.732;2023-03-01T08:34:08;26.50;44.60
65826;DHT22;52586;-43.152;172.732;2023-03-01T08:36:40;26.50;44.60
65826;DHT22;52586;-43.152;172.732;2023-03-01T08:39:12;26.50;44.60
65826;DHT22;52586;-43.152;172.732;2023-03-01T08:41:43;26.40;44.50
65826;DHT22;52586;-43.152;172.732;2023-03-01T08:44:14;26.40;44.50
65826;DHT22;52586;-43.152;172.732;2023-03-01T08:46:46;26.40;44.50
65826;DHT22;52586;-43.152;172.732;2023-03-01T08:49:20;26.40;45.20
65826;DHT22;52586;-43.152;172.732;2023-03-01T08:51:51;26.40;44.60
65826;DHT22;52586;-43.152;172.732;2023-03-01T08:54:22;26.40;45.40
65826;DHT22;52586;-43.152;172.732;2023-03-01T08:56:53;26.40;44.80
65826;DHT22;52586;-43.152;172.732;2023-03-01T08:59:25;26.40;44.80
65826;DHT22;52586;-43.152;172.732;2023-03-01T09:01:57;26.40;44.80
65826;DHT22;52586;-43.152;172.732;2023-03-01T09:04:29;26.40;44.80
65826;DHT22;52586;-43.152;172.732;2023-03-01T09:07:01;26.40;44.80
65826;DHT22;52586;-43.152;172.732;2023-03-01T09:09:31;26.40;44.70
65826;DHT22;52586;-43.152;172.732;2023-03-01T09:12:02;26.30;44.70
65826;DHT22;52586;-43.152;172.732;2023-03-01T09:14:33;26.40;44.70
65826;DHT22;52586;-43.152;172.732;2023-03-01T09:17:05;26.40;44.80
65826;DHT22;52586;-43.152;172.732;2023-03-01T09:19:37;26.30;44.70
65826;DHT22;52586;-43.152;172.732;2023-03-01T09:22:08;26.30;44.70
65826;DHT22;52586;-43.152;172.732;2023-03-01T09:24:38;26.20;44.70
65826;DHT22;52586;-43.152;172.732;2023-03-01T09:27:09;26.20;44.70
65826;DHT22;52586;-43.152;172.732;2023-03-01T09:29:41;26.20;44.80
65826;DHT22;52586;-43.152;172.732;2023-03-01T09:32:12;26.30;44.90
65826;DHT22;52586;-43.152;172.732;2023-03-01T09:34:44;26.20;44.80
65826;DHT22;52586;-43.152;172.732;2023-03-01T09:37:28;26.20;44.80
65826;DHT22;52586;-43.152;172.732;2023-03-01T09:39:58;26.20;44.90
65826;DHT22;52586;-43.152;172.732;2023-03-01T09:42:30;26.20;45.00
65826;DHT22;52586;-43.152;172.732;2023-03-01T09:45:04;26.20;45.00
65826;DHT22;52586;-43.152;172.732;2023-03-01T09:47:36;26.20;44.90
65826;DHT22;52586;-43.152;172.732;2023-03-01T09:50:13;26.20;44.90
65826;DHT22;52586;-43.152;172.732;2023-03-01T09:52:47;26.20;45.00
65826;DHT22;52586;-43.152;172.732;2023-03-01T09:55:26;26.20;45.00
65826;DHT22;52586;-43.152;172.732;2023-03-01T09:58:04;26.20;45.00
65826;DHT22;52586;-43.152;172.732;2023-03-01T10:00:41;26.10;44.90
65826;DHT22;52586;-43.152;172.732;2023-03-01T10:03:17;26.10;45.00
65826;DHT22;52586;-43.152;172.732;2023-03-01T10:06:04;26.10;45.00
65826;DHT22;52586;-43.152;172.732;2023-03-01T10:08:41;26.00;45.00
65826;DHT22;52586;-43.152;172.732;2023-03-01T10:11:20;26.10;45.10
65826;DHT22;52586;-43.152;172.732;2023-03-01T10:13:57;26.00;45.10
65826;DHT22;52586;-43.152;172.732;2023-03-01T10:16:37;26.00;45.10
65826;DHT22;52586;-43.152;172.732;2023-03-01T10:19:14;26.00;45.10
65826;DHT22;52586;-43.152;172.732;2023-03-01T10:21:49;26.00;45.20
65826;DHT22;52586;-43.152;172.732;2023-03-01T10:24:21;26.00;45.20
65826;DHT22;52586;-43.152;172.732;2023-03-01T10:26:56;25.90;45.10
65826;DHT22;52586;-43.152;172.732;2023-03-01T10:29:31;25.90;45.20
65826;DHT22;52586;-43.152;172.732;2023-03-01T10:32:05;25.90;45.10
65826;DHT22;52586;-43.152;172.732;2023-03-01T10:34:36;25.90;45.20
65826;DHT22;52586;-43.152;172.732;2023-03-01T10:37:13;25.90;45.20
65826;DHT22;52586;-43.152;172.732;2023-03-01T10:40:05;25.90;45.20
65826;DHT22;52586;-43.152;172.732;2023-03-01T10:42:38;25.90;45.30
65826;DHT22;52586;-43.152;172.732;2023-03-01T10:45:30;25.90;45.30
65826;DHT22;52586;-43.152;172.732;2023-03-01T10:48:12;25.90;45.30
65826;DHT22;52586;-43.152;172.732;2023-03-01T10:50:44;25.80;45.30
65826;DHT22;52586;-43.152;172.732;2023-03-01T10:53:24;25.80;45.30
65826;DHT22;52586;-43.152;172.732;2023-03-01T10:56:04;25.80;45.30
65826;DHT22;52586;-43.152;172.732;2023-03-01T10:58:36;25.80;45.40
65826;DHT22;52586;-43.152;172.732;2023-03-01T11:01:25;25.80;45.40
65826;DHT22;52586;-43.152;172.732;2023-03-01T11:04:11;25.80;45.30
65826;DHT22;52586;-43.152;172.732;2023-03-01T11:06:43;25.80;45.40
65826;DHT22;52586;-43.152;172.732;2023-03-01T11:09:20;25.80;45.30
65826;DHT22;52586;-43.152;172.732;2023-03-01T11:11:54;25.80;45.40
65826;DHT22;52586;-43.152;172.732;2023-03-01T11:14:26;25.70;45.30
65826;DHT22;52586;-43.152;172.732;2023-03-01T11:17:01;25.70;45.40
65826;DHT22;52586;-43.152;172.732;2023-03-01T11:19:32;25.70;45.40
65826;DHT22;52586;-43.152;172.732;2023-03-01T11:22:05;25.70;45.50
65826;DHT22;52586;-43.152;172.732;2023-03-01T11:24:43;25.70;45.50
65826;DHT22;52586;-43.152;172.732;2023-03-01T11:27:19;25.70;45.60
65826;DHT22;52586;-43.152;172.732;2023-03-01T11:29:54;25.60;45.50
65826;DHT22;52586;-43.152;172.732;2023-03-01T11:32:30;25.60;45.50
65826;DHT22;52586;-43.152;172.732;2023-03-01T11:35:04;25.60;45.60
65826;DHT22;52586;-43.152;172.732;2023-03-01T11:37:43;25.60;45.60
65826;DHT22;52586;-43.152;172.732;2023-03-01T11:40:21;25.60;45.60
65826;DHT22;52586;-43.152;172.732;2023-03-01T11:43:06;25.60;45.60
65826;DHT22;52586;-43.152;172.732;2023-03-01T11:45:50;25.60;45.60
65826;DHT22;52586;-43.152;172.732;2023-03-01T11:48:46;25.60;45.60
65826;DHT22;52586;-43.152;172.732;2023-03-01T11:51:24;25.50;45.60
65826;DHT22;52586;-43.152;172.732;2023-03-01T11:54:09;25.50;45.50
65826;DHT22;52586;-43.152;172.732;2023-03-01T11:56:49;25.50;45.60
65826;DHT22;52586;-43.152;172.732;2023-03-01T12:02:35;25.50;45.60
65826;DHT22;52586;-43.152;172.732;2023-03-01T12:05:44;25.50;45.60
65826;DHT22;52586;-43.152;172.732;2023-03-01T12:08:23;25.40;45.70
65826;DHT22;52586;-43.152;172.732;2023-03-01T12:11:02;25.50;45.70
65826;DHT22;52586;-43.152;172.732;2023-03-01T12:14:20;25.40;45.70
65826;DHT22;52586;-43.152;172.732;2023-03-01T12:17:16;25.40;45.70
65826;DHT22;52586;-43.152;172.732;2023-03-01T12:20:05;25.40;45.70
65826;DHT22;52586;-43.152;172.732;2023-03-01T12:22:49;25.40;45.70
65826;DHT22;52586;-43.152;172.732;2023-03-01T12:25:31;25.40;45.70
65826;DHT22;52586;-43.152;172.732;2023-03-01T12:28:24;25.30;45.70
65826;DHT22;52586;-43.152;172.732;2023-03-01T12:31:20;25.30;45.70
65826;DHT22;52586;-43.152;172.732;2023-03-01T12:33:59;25.30;45.70
65826;DHT22;52586;-43.152;172.732;2023-03-01T12:37:14;25.30;45.70
65826;DHT22;52586;-43.152;172.732;2023-03-01T12:40:00;25.30;45.80
65826;DHT22;52586;-43.152;172.732;2023-03-01T12:42:38;25.20;45.80
65826;DHT22;52586;-43.152;172.732;2023-03-01T12:48:34;25.30;45.90
65826;DHT22;52586;-43.152;172.732;2023-03-01T12:51:11;25.20;45.90
65826;DHT22;52586;-43.152;172.732;2023-03-01T12:53:47;25.20;45.90
65826;DHT22;52586;-43.152;172.732;2023-03-01T12:56:21;25.20;45.90
65826;DHT22;52586;-43.152;172.732;2023-03-01T12:58:59;25.20;45.90
65826;DHT22;52586;-43.152;172.732;2023-03-01T13:01:44;25.20;45.90
65826;DHT22;52586;-43.152;172.732;2023-03-01T13:04:28;25.20;45.90
65826;DHT22;52586;-43.152;172.732;2023-03-01T13:07:11;25.10;45.90
65826;DHT22;52586;-43.152;172.732;2023-03-01T13:09:50;25.20;46.00
65826;DHT22;52586;-43.152;172.732;2023-03-01T13:12:51;25.10;45.90
65826;DHT22;52586;-43.152;172.732;2023-03-01T13:15:33;25.10;45.90
65826;DHT22;52586;-43.152;172.732;2023-03-01T13:18:26;25.10;45.90
65826;DHT22;52586;-43.152;172.732;2023-03-01T13:21:01;25.10;46.00
65826;DHT22;52586;-43.152;172.732;2023-03-01T13:23:37;25.10;46.00
65826;DHT22;52586;-43.152;172.732;2023-03-01T13:26:14;25.10;46.00
65826;DHT22;52586;-43.152;172.732;2023-03-01T13:28:53;25.10;46.00
65826;DHT22;52586;-43.152;172.732;2023-03-01T13:34:51;25.00;46.00
65826;DHT22;52586;-43.152;172.732;2023-03-01T13:37:34;25.00;46.00
65826;DHT22;52586;-43.152;172.732;2023-03-01T13:43:38;25.00;46.10
65826;DHT22;52586;-43.152;172.732;2023-03-01T13:46:16;25.00;46.10
65826;DHT22;52586;-43.152;172.732;2023-03-01T13:48:50;25.00;46.10
65826;DHT22;52586;-43.152;172.732;2023-03-01T13:51:25;25.00;46.10
65826;DHT22;52586;-43.152;172.732;2023-03-01T13:53:59;25.00;46.10
65826;DHT22;52586;-43.152;172.732;2023-03-01T13:56:37;24.90;46.10
65826;DHT22;52586;-43.152;172.732;2023-03-01T13:59:14;24.90;46.10
65826;DHT22;52586;-43.152;172.732;2023-03-01T14:01:51;24.90;46.20
65826;DHT22;52586;-43.152;172.732;2023-03-01T14:04:23;24.90;46.20
65826;DHT22;52586;-43.152;172.732;2023-03-01T14:07:12;24.90;46.20
65826;DHT22;52586;-43.152;172.732;2023-03-01T14:09:46;24.90;46.20
65826;DHT22;52586;-43.152;172.732;2023-03-01T14:12:28;24.90;46.20
65826;DHT22;52586;-43.152;172.732;2023-03-01T14:15:04;24.90;46.20
65826;DHT22;52586;-43.152;172.732;2023-03-01T14:17:52;24.90;46.30
65826;DHT22;52586;-43.152;172.732;2023-03-01T14:20:27;24.90;46.20
65826;DHT22;52586;-43.152;172.732;2023-03-01T14:22:59;24.90;46.30
65826;DHT22;52586;-43.152;172.732;2023-03-01T14:25:34;24.90;46.20
65826;DHT22;52586;-43.152;172.732;2023-03-01T14:28:14;24.90;46.20
65826;DHT22;52586;-43.152;172.732;2023-03-01T14:30:47;24.90;46.30
65826;DHT22;52586;-43.152;172.732;2023-03-01T14:33:24;24.80;46.30
65826;DHT22;52586;-43.152;172.732;2023-03-01T14:35:56;24.80;46.30
65826;DHT22;52586;-43.152;172.732;2023-03-01T14:38:32;24.80;46.30
65826;DHT22;52586;-43.152;172.732;2023-03-01T14:41:08;24.80;46.30
65826;DHT22;52586;-43.152;172.732;2023-03-01T14:43:41;24.80;46.30
65826;DHT22;52586;-43.152;172.732;2023-03-01T14:46:20;24.80;46.40
65826;DHT22;52586;-43.152;172.732;2023-03-01T14:48:53;24.80;46.40
65826;DHT22;52586;-43.152;172.732;2023-03-01T14:51:24;24.80;46.40
65826;DHT22;52586;-43.152;172.732;2023-03-01T14:53:55;24.80;46.40
65826;DHT22;52586;-43.152;172.732;2023-03-01T14:56:28;24.70;46.40
65826;DHT22;52586;-43.152;172.732;2023-03-01T14:59:13;24.70;46.40
65826;DHT22;52586;-43.152;172.732;2023-03-01T15:01:44;24.70;46.30
65826;DHT22;52586;-43.152;172.732;2023-03-01T15:04:15;24.70;46.30
65826;DHT22;52586;-43.152;172.732;2023-03-01T15:06:46;24.70;46.40
65826;DHT22;52586;-43.152;172.732;2023-03-01T15:09:18;24.70;46.40
65826;DHT22;52586;-43.152;172.732;2023-03-01T15:11:51;24.60;46.40
65826;DHT22;52586;-43.152;172.732;2023-03-01T15:14:40;24.60;46.80
65826;DHT22;52586;-43.152;172.732;2023-03-01T15:17:26;24.60;46.80
65826;DHT22;52586;-43.152;172.732;2023-03-01T15:19:59;24.60;46.60
65826;DHT22;52586;-43.152;172.732;2023-03-01T15:22:31;24.70;46.60
65826;DHT22;52586;-43.152;172.732;2023-03-01T15:25:01;24.70;46.60
65826;DHT22;52586;-43.152;172.732;2023-03-01T15:27:34;24.70;46.50
65826;DHT22;52586;-43.152;172.732;2023-03-01T15:30:18;24.70;46.50
65826;DHT22;52586;-43.152;172.732;2023-03-01T15:33:16;24.70;46.50
65826;DHT22;52586;-43.152;172.732;2023-03-01T15:35:49;24.70;46.50
65826;DHT22;52586;-43.152;172.732;2023-03-01T15:38:32;24.70;46.50
65826;DHT22;52586;-43.152;172.732;2023-03-01T15:41:21;24.60;46.50
65826;DHT22;52586;-43.152;172.732;2023-03-01T15:43:54;24.60;46.50
65826;DHT22;52586;-43.152;172.732;2023-03-01T15:46:27;24.60;46.60
65826;DHT22;52586;-43.152;172.732;2023-03-01T15:49:01;24.60;46.60